臺北終端管制區 - 松西席

METAR RCSS 021900Z VRB02KT 9999 FEW020 12/11 Q1022 NOSIG RMK A3020(T)=

站台狀態:Offline
最後更新:2021-12-03 03:00:01